sensor_id;sensor_type;location;lat;lon;timestamp;P1;durP1;ratioP1;P2;durP2;ratioP2
52940;SDS011;62001;53.366;6.636;2023-08-07T00:00:45;10.23;;;3.80;;
52940;SDS011;62001;53.366;6.636;2023-08-07T00:03:11;7.80;;;3.25;;
52940;SDS011;62001;53.366;6.636;2023-08-07T00:05:44;7.45;;;2.80;;
52940;SDS011;62001;53.366;6.636;2023-08-07T00:08:11;5.82;;;2.72;;
52940;SDS011;62001;53.366;6.636;2023-08-07T00:10:37;8.80;;;2.63;;
52940;SDS011;62001;53.366;6.636;2023-08-07T00:13:03;9.93;;;3.30;;
52940;SDS011;62001;53.366;6.636;2023-08-07T00:15:29;6.85;;;2.80;;
52940;SDS011;62001;53.366;6.636;2023-08-07T00:17:55;7.15;;;2.83;;
52940;SDS011;62001;53.366;6.636;2023-08-07T00:20:21;4.03;;;2.55;;
52940;SDS011;62001;53.366;6.636;2023-08-07T00:22:47;5.90;;;2.88;;
52940;SDS011;62001;53.366;6.636;2023-08-07T00:25:13;8.77;;;3.22;;
52940;SDS011;62001;53.366;6.636;2023-08-07T00:27:38;5.72;;;2.95;;
52940;SDS011;62001;53.366;6.636;2023-08-07T00:30:04;7.20;;;3.17;;
52940;SDS011;62001;53.366;6.636;2023-08-07T00:32:31;5.38;;;3.33;;
52940;SDS011;62001;53.366;6.636;2023-08-07T00:34:56;10.75;;;3.60;;
52940;SDS011;62001;53.366;6.636;2023-08-07T00:37:22;8.90;;;3.25;;
52940;SDS011;62001;53.366;6.636;2023-08-07T00:39:48;13.80;;;3.80;;
52940;SDS011;62001;53.366;6.636;2023-08-07T00:42:14;10.23;;;3.67;;
52940;SDS011;62001;53.366;6.636;2023-08-07T00:44:40;10.85;;;4.10;;
52940;SDS011;62001;53.366;6.636;2023-08-07T00:47:06;9.35;;;4.20;;
52940;SDS011;62001;53.366;6.636;2023-08-07T00:49:32;9.30;;;3.70;;
52940;SDS011;62001;53.366;6.636;2023-08-07T00:51:58;7.93;;;3.40;;
52940;SDS011;62001;53.366;6.636;2023-08-07T00:54:24;7.28;;;3.40;;
52940;SDS011;62001;53.366;6.636;2023-08-07T00:56:51;10.10;;;3.45;;
52940;SDS011;62001;53.366;6.636;2023-08-07T00:59:17;9.52;;;3.15;;
52940;SDS011;62001;53.366;6.636;2023-08-07T01:01:44;8.77;;;3.78;;
52940;SDS011;62001;53.366;6.636;2023-08-07T01:04:10;5.55;;;3.25;;
52940;SDS011;62001;53.366;6.636;2023-08-07T01:06:36;7.35;;;3.53;;
52940;SDS011;62001;53.366;6.636;2023-08-07T01:09:02;9.60;;;3.58;;
52940;SDS011;62001;53.366;6.636;2023-08-07T01:11:34;5.80;;;3.22;;
52940;SDS011;62001;53.366;6.636;2023-08-07T01:17:11;13.07;;;3.90;;
52940;SDS011;62001;53.366;6.636;2023-08-07T01:19:41;8.82;;;3.58;;
52940;SDS011;62001;53.366;6.636;2023-08-07T01:22:07;7.13;;;3.60;;
52940;SDS011;62001;53.366;6.636;2023-08-07T01:24:38;7.43;;;4.00;;
52940;SDS011;62001;53.366;6.636;2023-08-07T01:27:19;6.32;;;3.75;;
52940;SDS011;62001;53.366;6.636;2023-08-07T01:30:09;14.95;;;3.30;;
52940;SDS011;62001;53.366;6.636;2023-08-07T01:32:47;5.63;;;3.10;;
52940;SDS011;62001;53.366;6.636;2023-08-07T01:35:22;7.03;;;3.10;;
52940;SDS011;62001;53.366;6.636;2023-08-07T01:37:53;8.75;;;3.15;;
52940;SDS011;62001;53.366;6.636;2023-08-07T01:40:21;8.77;;;3.33;;
52940;SDS011;62001;53.366;6.636;2023-08-07T01:42:48;9.02;;;3.47;;
52940;SDS011;62001;53.366;6.636;2023-08-07T01:45:22;6.30;;;3.47;;
52940;SDS011;62001;53.366;6.636;2023-08-07T01:47:52;6.47;;;3.50;;
52940;SDS011;62001;53.366;6.636;2023-08-07T01:50:20;7.38;;;3.03;;
52940;SDS011;62001;53.366;6.636;2023-08-07T01:52:47;6.63;;;3.42;;
52940;SDS011;62001;53.366;6.636;2023-08-07T01:55:14;6.57;;;3.58;;
52940;SDS011;62001;53.366;6.636;2023-08-07T01:57:40;7.93;;;3.47;;
52940;SDS011;62001;53.366;6.636;2023-08-07T02:00:06;8.45;;;3.58;;
52940;SDS011;62001;53.366;6.636;2023-08-07T02:02:33;7.55;;;3.72;;
52940;SDS011;62001;53.366;6.636;2023-08-07T02:05:00;7.68;;;3.50;;
52940;SDS011;62001;53.366;6.636;2023-08-07T02:07:25;9.18;;;3.65;;
52940;SDS011;62001;53.366;6.636;2023-08-07T02:09:51;6.93;;;2.97;;
52940;SDS011;62001;53.366;6.636;2023-08-07T02:12:17;4.20;;;3.10;;
52940;SDS011;62001;53.366;6.636;2023-08-07T02:14:43;6.55;;;3.55;;
52940;SDS011;62001;53.366;6.636;2023-08-07T02:17:09;7.70;;;3.33;;
52940;SDS011;62001;53.366;6.636;2023-08-07T02:19:35;8.05;;;3.42;;
52940;SDS011;62001;53.366;6.636;2023-08-07T02:22:01;6.63;;;3.13;;
52940;SDS011;62001;53.366;6.636;2023-08-07T02:24:27;6.85;;;3.40;;
52940;SDS011;62001;53.366;6.636;2023-08-07T02:26:53;11.00;;;3.63;;
52940;SDS011;62001;53.366;6.636;2023-08-07T02:29:19;9.80;;;3.22;;
52940;SDS011;62001;53.366;6.636;2023-08-07T02:31:45;8.70;;;3.67;;
52940;SDS011;62001;53.366;6.636;2023-08-07T02:34:10;8.88;;;3.03;;
52940;SDS011;62001;53.366;6.636;2023-08-07T02:36:36;8.43;;;3.03;;
52940;SDS011;62001;53.366;6.636;2023-08-07T02:39:03;6.30;;;2.45;;
52940;SDS011;62001;53.366;6.636;2023-08-07T02:41:29;8.13;;;2.67;;
52940;SDS011;62001;53.366;6.636;2023-08-07T02:43:56;7.53;;;2.30;;
52940;SDS011;62001;53.366;6.636;2023-08-07T02:46:22;7.00;;;2.25;;
52940;SDS011;62001;53.366;6.636;2023-08-07T02:48:48;9.18;;;2.45;;
52940;SDS011;62001;53.366;6.636;2023-08-07T02:51:14;7.22;;;2.47;;
52940;SDS011;62001;53.366;6.636;2023-08-07T02:53:40;8.88;;;2.50;;
52940;SDS011;62001;53.366;6.636;2023-08-07T02:56:06;12.57;;;2.60;;
52940;SDS011;62001;53.366;6.636;2023-08-07T02:58:32;6.97;;;2.33;;
52940;SDS011;62001;53.366;6.636;2023-08-07T03:01:02;7.20;;;2.40;;
52940;SDS011;62001;53.366;6.636;2023-08-07T03:03:31;10.70;;;2.70;;
52940;SDS011;62001;53.366;6.636;2023-08-07T03:05:57;5.85;;;2.60;;
52940;SDS011;62001;53.366;6.636;2023-08-07T03:08:23;8.35;;;2.35;;
52940;SDS011;62001;53.366;6.636;2023-08-07T03:10:52;9.35;;;2.45;;
52940;SDS011;62001;53.366;6.636;2023-08-07T03:13:21;8.07;;;2.40;;
52940;SDS011;62001;53.366;6.636;2023-08-07T03:15:47;8.85;;;1.73;;
52940;SDS011;62001;53.366;6.636;2023-08-07T03:18:15;8.55;;;1.77;;
52940;SDS011;62001;53.366;6.636;2023-08-07T03:20:41;6.70;;;1.80;;
52940;SDS011;62001;53.366;6.636;2023-08-07T03:23:09;7.95;;;1.90;;
52940;SDS011;62001;53.366;6.636;2023-08-07T03:25:35;9.02;;;2.05;;
52940;SDS011;62001;53.366;6.636;2023-08-07T03:28:01;7.68;;;1.65;;
52940;SDS011;62001;53.366;6.636;2023-08-07T03:30:27;9.93;;;1.70;;
52940;SDS011;62001;53.366;6.636;2023-08-07T03:32:53;8.95;;;2.30;;
52940;SDS011;62001;53.366;6.636;2023-08-07T03:35:18;10.30;;;2.47;;
52940;SDS011;62001;53.366;6.636;2023-08-07T03:37:44;10.75;;;2.65;;
52940;SDS011;62001;53.366;6.636;2023-08-07T03:40:10;11.43;;;3.17;;
52940;SDS011;62001;53.366;6.636;2023-08-07T03:42:36;12.98;;;4.05;;
52940;SDS011;62001;53.366;6.636;2023-08-07T03:45:02;26.38;;;4.65;;
52940;SDS011;62001;53.366;6.636;2023-08-07T03:47:28;25.30;;;4.72;;
52940;SDS011;62001;53.366;6.636;2023-08-07T03:49:54;26.58;;;5.20;;
52940;SDS011;62001;53.366;6.636;2023-08-07T03:52:20;26.65;;;5.00;;
52940;SDS011;62001;53.366;6.636;2023-08-07T03:54:46;21.30;;;4.38;;
52940;SDS011;62001;53.366;6.636;2023-08-07T03:57:11;19.23;;;4.72;;
52940;SDS011;62001;53.366;6.636;2023-08-07T03:59:37;22.88;;;4.40;;
52940;SDS011;62001;53.366;6.636;2023-08-07T04:02:03;18.85;;;4.22;;
52940;SDS011;62001;53.366;6.636;2023-08-07T04:04:29;18.92;;;4.50;;
52940;SDS011;62001;53.366;6.636;2023-08-07T04:06:55;19.10;;;4.30;;
52940;SDS011;62001;53.366;6.636;2023-08-07T04:09:21;13.73;;;3.42;;
52940;SDS011;62001;53.366;6.636;2023-08-07T04:11:47;14.20;;;3.88;;
52940;SDS011;62001;53.366;6.636;2023-08-07T04:14:13;23.70;;;4.20;;
52940;SDS011;62001;53.366;6.636;2023-08-07T04:16:38;16.60;;;3.92;;
52940;SDS011;62001;53.366;6.636;2023-08-07T04:19:04;17.05;;;4.18;;
52940;SDS011;62001;53.366;6.636;2023-08-07T04:21:32;24.30;;;4.15;;
52940;SDS011;62001;53.366;6.636;2023-08-07T04:23:58;17.98;;;4.10;;
52940;SDS011;62001;53.366;6.636;2023-08-07T04:26:26;19.80;;;4.20;;
52940;SDS011;62001;53.366;6.636;2023-08-07T04:28:52;14.90;;;4.10;;
52940;SDS011;62001;53.366;6.636;2023-08-07T04:31:18;13.25;;;3.67;;
52940;SDS011;62001;53.366;6.636;2023-08-07T04:33:43;16.95;;;4.30;;
52940;SDS011;62001;53.366;6.636;2023-08-07T04:36:09;16.75;;;4.03;;
52940;SDS011;62001;53.366;6.636;2023-08-07T04:38:35;19.70;;;4.40;;
52940;SDS011;62001;53.366;6.636;2023-08-07T04:41:01;22.08;;;5.03;;
52940;SDS011;62001;53.366;6.636;2023-08-07T04:43:28;24.08;;;4.50;;
52940;SDS011;62001;53.366;6.636;2023-08-07T04:45:54;23.38;;;4.20;;
52940;SDS011;62001;53.366;6.636;2023-08-07T04:48:20;16.73;;;4.05;;
52940;SDS011;62001;53.366;6.636;2023-08-07T04:50:47;19.70;;;3.92;;
52940;SDS011;62001;53.366;6.636;2023-08-07T04:53:13;20.45;;;4.93;;
52940;SDS011;62001;53.366;6.636;2023-08-07T04:55:39;19.05;;;4.55;;
52940;SDS011;62001;53.366;6.636;2023-08-07T04:58:05;21.73;;;5.03;;
52940;SDS011;62001;53.366;6.636;2023-08-07T05:00:31;21.63;;;5.25;;
52940;SDS011;62001;53.366;6.636;2023-08-07T05:02:57;26.45;;;5.68;;
52940;SDS011;62001;53.366;6.636;2023-08-07T05:05:23;22.08;;;5.18;;
52940;SDS011;62001;53.366;6.636;2023-08-07T05:07:49;24.00;;;5.13;;
52940;SDS011;62001;53.366;6.636;2023-08-07T05:10:15;20.48;;;4.88;;
52940;SDS011;62001;53.366;6.636;2023-08-07T05:12:40;19.55;;;5.00;;
52940;SDS011;62001;53.366;6.636;2023-08-07T05:15:06;20.70;;;4.47;;
52940;SDS011;62001;53.366;6.636;2023-08-07T05:17:32;18.73;;;4.55;;
52940;SDS011;62001;53.366;6.636;2023-08-07T05:19:58;17.25;;;4.20;;
52940;SDS011;62001;53.366;6.636;2023-08-07T05:22:24;18.17;;;4.43;;
52940;SDS011;62001;53.366;6.636;2023-08-07T05:24:50;21.30;;;4.35;;
52940;SDS011;62001;53.366;6.636;2023-08-07T05:27:16;13.65;;;3.83;;
52940;SDS011;62001;53.366;6.636;2023-08-07T05:29:42;19.42;;;4.40;;
52940;SDS011;62001;53.366;6.636;2023-08-07T05:32:14;25.08;;;5.03;;
52940;SDS011;62001;53.366;6.636;2023-08-07T05:34:40;20.63;;;4.57;;
52940;SDS011;62001;53.366;6.636;2023-08-07T05:37:06;17.25;;;4.53;;
52940;SDS011;62001;53.366;6.636;2023-08-07T05:39:34;22.75;;;4.75;;
52940;SDS011;62001;53.366;6.636;2023-08-07T05:42:00;20.63;;;5.05;;
52940;SDS011;62001;53.366;6.636;2023-08-07T05:44:26;20.00;;;5.55;;
52940;SDS011;62001;53.366;6.636;2023-08-07T05:46:53;17.33;;;4.57;;
52940;SDS011;62001;53.366;6.636;2023-08-07T05:49:19;21.90;;;5.15;;
52940;SDS011;62001;53.366;6.636;2023-08-07T05:51:45;20.83;;;4.82;;
52940;SDS011;62001;53.366;6.636;2023-08-07T05:54:11;25.23;;;5.50;;
52940;SDS011;62001;53.366;6.636;2023-08-07T05:56:37;29.40;;;5.40;;
52940;SDS011;62001;53.366;6.636;2023-08-07T05:59:03;30.30;;;5.80;;
52940;SDS011;62001;53.366;6.636;2023-08-07T06:01:29;23.25;;;4.80;;
52940;SDS011;62001;53.366;6.636;2023-08-07T06:03:58;17.90;;;3.85;;
52940;SDS011;62001;53.366;6.636;2023-08-07T06:06:25;18.15;;;3.90;;
52940;SDS011;62001;53.366;6.636;2023-08-07T06:08:53;17.70;;;3.53;;
52940;SDS011;62001;53.366;6.636;2023-08-07T06:11:19;15.68;;;3.72;;
52940;SDS011;62001;53.366;6.636;2023-08-07T06:13:45;12.38;;;3.30;;
52940;SDS011;62001;53.366;6.636;2023-08-07T06:16:11;16.70;;;3.88;;
52940;SDS011;62001;53.366;6.636;2023-08-07T06:18:37;20.83;;;4.03;;
52940;SDS011;62001;53.366;6.636;2023-08-07T06:21:03;17.13;;;3.90;;
52940;SDS011;62001;53.366;6.636;2023-08-07T06:23:32;21.38;;;4.70;;
52940;SDS011;62001;53.366;6.636;2023-08-07T06:25:58;21.17;;;4.35;;
52940;SDS011;62001;53.366;6.636;2023-08-07T06:28:24;23.83;;;4.43;;
52940;SDS011;62001;53.366;6.636;2023-08-07T06:30:50;13.63;;;3.75;;
52940;SDS011;62001;53.366;6.636;2023-08-07T06:33:16;14.02;;;3.05;;
52940;SDS011;62001;53.366;6.636;2023-08-07T06:35:42;11.27;;;3.15;;
52940;SDS011;62001;53.366;6.636;2023-08-07T06:38:08;13.48;;;3.55;;
52940;SDS011;62001;53.366;6.636;2023-08-07T06:40:37;17.95;;;3.97;;
52940;SDS011;62001;53.366;6.636;2023-08-07T06:43:03;21.77;;;4.20;;
52940;SDS011;62001;53.366;6.636;2023-08-07T06:45:29;21.77;;;4.22;;
52940;SDS011;62001;53.366;6.636;2023-08-07T06:47:55;17.95;;;5.03;;
52940;SDS011;62001;53.366;6.636;2023-08-07T06:50:21;15.00;;;3.65;;
52940;SDS011;62001;53.366;6.636;2023-08-07T06:52:47;17.50;;;3.70;;
52940;SDS011;62001;53.366;6.636;2023-08-07T06:55:12;14.75;;;4.20;;
52940;SDS011;62001;53.366;6.636;2023-08-07T06:57:38;9.23;;;3.08;;
52940;SDS011;62001;53.366;6.636;2023-08-07T07:00:05;15.95;;;3.88;;
52940;SDS011;62001;53.366;6.636;2023-08-07T07:02:31;17.48;;;4.55;;
52940;SDS011;62001;53.366;6.636;2023-08-07T07:04:57;15.32;;;3.72;;
52940;SDS011;62001;53.366;6.636;2023-08-07T07:07:23;13.98;;;3.78;;
52940;SDS011;62001;53.366;6.636;2023-08-07T07:09:49;15.35;;;3.58;;
52940;SDS011;62001;53.366;6.636;2023-08-07T07:12:15;15.60;;;3.97;;
52940;SDS011;62001;53.366;6.636;2023-08-07T07:14:41;15.77;;;3.75;;
52940;SDS011;62001;53.366;6.636;2023-08-07T07:17:06;12.70;;;3.15;;
52940;SDS011;62001;53.366;6.636;2023-08-07T07:19:32;18.65;;;3.35;;
52940;SDS011;62001;53.366;6.636;2023-08-07T07:21:58;15.77;;;3.30;;
52940;SDS011;62001;53.366;6.636;2023-08-07T07:24:24;15.80;;;3.63;;
52940;SDS011;62001;53.366;6.636;2023-08-07T07:26:50;13.00;;;3.30;;
52940;SDS011;62001;53.366;6.636;2023-08-07T07:29:16;18.30;;;4.07;;
52940;SDS011;62001;53.366;6.636;2023-08-07T07:31:43;12.98;;;3.78;;
52940;SDS011;62001;53.366;6.636;2023-08-07T07:34:09;15.27;;;3.60;;
52940;SDS011;62001;53.366;6.636;2023-08-07T07:36:35;12.50;;;3.25;;
52940;SDS011;62001;53.366;6.636;2023-08-07T07:39:01;17.50;;;4.22;;
52940;SDS011;62001;53.366;6.636;2023-08-07T07:41:27;10.82;;;3.22;;
52940;SDS011;62001;53.366;6.636;2023-08-07T07:43:53;11.43;;;3.28;;
52940;SDS011;62001;53.366;6.636;2023-08-07T07:46:19;12.20;;;3.53;;
52940;SDS011;62001;53.366;6.636;2023-08-07T07:48:45;15.35;;;3.35;;
52940;SDS011;62001;53.366;6.636;2023-08-07T07:51:10;18.08;;;3.83;;
52940;SDS011;62001;53.366;6.636;2023-08-07T07:53:36;14.38;;;3.80;;
52940;SDS011;62001;53.366;6.636;2023-08-07T07:56:02;14.90;;;3.45;;
52940;SDS011;62001;53.366;6.636;2023-08-07T07:58:28;13.43;;;4.10;;
52940;SDS011;62001;53.366;6.636;2023-08-07T08:00:54;14.30;;;3.40;;
52940;SDS011;62001;53.366;6.636;2023-08-07T08:03:20;18.65;;;4.00;;
52940;SDS011;62001;53.366;6.636;2023-08-07T08:05:51;15.40;;;3.72;;
52940;SDS011;62001;53.366;6.636;2023-08-07T08:08:17;17.50;;;4.00;;
52940;SDS011;62001;53.366;6.636;2023-08-07T08:10:44;22.10;;;3.97;;
52940;SDS011;62001;53.366;6.636;2023-08-07T08:13:12;13.27;;;3.33;;
52940;SDS011;62001;53.366;6.636;2023-08-07T08:15:38;15.57;;;3.60;;
52940;SDS011;62001;53.366;6.636;2023-08-07T08:18:04;17.83;;;4.20;;
52940;SDS011;62001;53.366;6.636;2023-08-07T08:20:30;17.25;;;3.45;;
52940;SDS011;62001;53.366;6.636;2023-08-07T08:22:56;20.75;;;4.20;;
52940;SDS011;62001;53.366;6.636;2023-08-07T08:25:22;13.82;;;3.58;;
52940;SDS011;62001;53.366;6.636;2023-08-07T08:27:48;15.38;;;3.55;;
52940;SDS011;62001;53.366;6.636;2023-08-07T08:30:16;19.60;;;3.75;;
52940;SDS011;62001;53.366;6.636;2023-08-07T08:32:42;16.95;;;4.38;;
52940;SDS011;62001;53.366;6.636;2023-08-07T08:35:09;17.10;;;4.50;;
52940;SDS011;62001;53.366;6.636;2023-08-07T08:37:35;16.80;;;4.57;;
52940;SDS011;62001;53.366;6.636;2023-08-07T08:40:01;10.05;;;3.83;;
52940;SDS011;62001;53.366;6.636;2023-08-07T08:42:27;15.95;;;4.07;;
52940;SDS011;62001;53.366;6.636;2023-08-07T08:44:53;18.77;;;4.90;;
52940;SDS011;62001;53.366;6.636;2023-08-07T08:47:21;19.67;;;4.45;;
52940;SDS011;62001;53.366;6.636;2023-08-07T08:49:49;14.80;;;4.85;;
52940;SDS011;62001;53.366;6.636;2023-08-07T08:52:20;19.80;;;4.53;;
52940;SDS011;62001;53.366;6.636;2023-08-07T08:54:46;17.52;;;4.22;;
52940;SDS011;62001;53.366;6.636;2023-08-07T08:57:12;14.50;;;4.68;;
52940;SDS011;62001;53.366;6.636;2023-08-07T08:59:40;20.20;;;5.18;;
52940;SDS011;62001;53.366;6.636;2023-08-07T09:02:06;19.05;;;4.25;;
52940;SDS011;62001;53.366;6.636;2023-08-07T09:04:33;22.75;;;4.40;;
52940;SDS011;62001;53.366;6.636;2023-08-07T09:06:59;14.57;;;3.85;;
52940;SDS011;62001;53.366;6.636;2023-08-07T09:09:26;17.92;;;4.38;;
52940;SDS011;62001;53.366;6.636;2023-08-07T09:11:53;14.05;;;3.90;;
52940;SDS011;62001;53.366;6.636;2023-08-07T09:14:24;23.23;;;5.13;;
52940;SDS011;62001;53.366;6.636;2023-08-07T09:16:51;22.05;;;4.55;;
52940;SDS011;62001;53.366;6.636;2023-08-07T09:19:19;19.95;;;4.18;;
52940;SDS011;62001;53.366;6.636;2023-08-07T09:21:45;20.48;;;4.72;;
52940;SDS011;62001;53.366;6.636;2023-08-07T09:24:10;15.70;;;3.88;;
52940;SDS011;62001;53.366;6.636;2023-08-07T09:26:37;14.15;;;3.67;;
52940;SDS011;62001;53.366;6.636;2023-08-07T09:29:07;13.32;;;3.63;;
52940;SDS011;62001;53.366;6.636;2023-08-07T09:31:35;17.77;;;3.80;;
52940;SDS011;62001;53.366;6.636;2023-08-07T09:34:02;11.68;;;3.30;;
52940;SDS011;62001;53.366;6.636;2023-08-07T09:36:33;13.70;;;3.40;;
52940;SDS011;62001;53.366;6.636;2023-08-07T09:39:02;16.10;;;3.60;;
52940;SDS011;62001;53.366;6.636;2023-08-07T09:41:29;12.52;;;3.15;;
52940;SDS011;62001;53.366;6.636;2023-08-07T09:43:56;16.15;;;3.30;;
52940;SDS011;62001;53.366;6.636;2023-08-07T09:46:28;10.50;;;2.78;;
52940;SDS011;62001;53.366;6.636;2023-08-07T09:48:57;11.20;;;2.97;;
52940;SDS011;62001;53.366;6.636;2023-08-07T09:51:24;10.00;;;3.58;;
52940;SDS011;62001;53.366;6.636;2023-08-07T09:53:50;10.27;;;3.08;;
52940;SDS011;62001;53.366;6.636;2023-08-07T09:56:16;13.75;;;3.67;;
52940;SDS011;62001;53.366;6.636;2023-08-07T09:58:46;10.85;;;3.47;;
52940;SDS011;62001;53.366;6.636;2023-08-07T10:01:13;13.10;;;3.50;;
52940;SDS011;62001;53.366;6.636;2023-08-07T10:03:41;12.13;;;3.53;;
52940;SDS011;62001;53.366;6.636;2023-08-07T10:06:08;12.25;;;3.92;;
52940;SDS011;62001;53.366;6.636;2023-08-07T10:08:34;12.18;;;3.60;;
52940;SDS011;62001;53.366;6.636;2023-08-07T10:11:03;13.25;;;3.50;;
52940;SDS011;62001;53.366;6.636;2023-08-07T10:13:29;14.23;;;3.60;;
52940;SDS011;62001;53.366;6.636;2023-08-07T10:15:56;14.88;;;3.95;;
52940;SDS011;62001;53.366;6.636;2023-08-07T10:18:23;19.15;;;4.40;;
52940;SDS011;62001;53.366;6.636;2023-08-07T10:20:49;16.42;;;4.07;;
52940;SDS011;62001;53.366;6.636;2023-08-07T10:23:16;19.95;;;4.43;;
52940;SDS011;62001;53.366;6.636;2023-08-07T10:25:43;17.00;;;4.15;;
52940;SDS011;62001;53.366;6.636;2023-08-07T10:28:13;12.82;;;3.88;;
52940;SDS011;62001;53.366;6.636;2023-08-07T10:30:43;17.63;;;3.63;;
52940;SDS011;62001;53.366;6.636;2023-08-07T10:33:10;12.68;;;3.30;;
52940;SDS011;62001;53.366;6.636;2023-08-07T10:35:39;14.80;;;3.78;;
52940;SDS011;62001;53.366;6.636;2023-08-07T10:38:12;19.17;;;4.45;;
52940;SDS011;62001;53.366;6.636;2023-08-07T10:46:20;16.40;;;3.50;;
52940;SDS011;62001;53.366;6.636;2023-08-07T10:48:47;19.63;;;3.90;;
52940;SDS011;62001;53.366;6.636;2023-08-07T10:51:19;17.88;;;3.35;;
52940;SDS011;62001;53.366;6.636;2023-08-07T10:53:48;14.77;;;3.30;;
52940;SDS011;62001;53.366;6.636;2023-08-07T10:56:17;8.95;;;3.00;;
52940;SDS011;62001;53.366;6.636;2023-08-07T10:58:55;8.05;;;2.53;;
52940;SDS011;62001;53.366;6.636;2023-08-07T11:01:40;12.23;;;3.00;;
52940;SDS011;62001;53.366;6.636;2023-08-07T11:04:08;12.50;;;3.03;;
52940;SDS011;62001;53.366;6.636;2023-08-07T11:06:40;10.38;;;2.80;;
52940;SDS011;62001;53.366;6.636;2023-08-07T11:09:07;10.57;;;3.03;;
52940;SDS011;62001;53.366;6.636;2023-08-07T11:16:42;14.65;;;3.45;;
52940;SDS011;62001;53.366;6.636;2023-08-07T11:19:08;14.20;;;3.92;;
52940;SDS011;62001;53.366;6.636;2023-08-07T11:21:35;15.15;;;3.72;;
52940;SDS011;62001;53.366;6.636;2023-08-07T11:24:02;16.25;;;3.78;;
52940;SDS011;62001;53.366;6.636;2023-08-07T11:26:28;15.20;;;3.42;;
52940;SDS011;62001;53.366;6.636;2023-08-07T11:28:55;15.18;;;3.58;;
52940;SDS011;62001;53.366;6.636;2023-08-07T11:31:21;14.55;;;3.90;;
52940;SDS011;62001;53.366;6.636;2023-08-07T11:33:56;13.45;;;3.35;;
52940;SDS011;62001;53.366;6.636;2023-08-07T11:36:27;13.85;;;3.65;;
52940;SDS011;62001;53.366;6.636;2023-08-07T11:38:54;11.93;;;3.28;;
52940;SDS011;62001;53.366;6.636;2023-08-07T11:41:20;11.45;;;3.17;;
52940;SDS011;62001;53.366;6.636;2023-08-07T11:43:46;11.65;;;2.83;;
52940;SDS011;62001;53.366;6.636;2023-08-07T11:46:14;12.52;;;3.15;;
52940;SDS011;62001;53.366;6.636;2023-08-07T11:48:43;11.25;;;3.20;;
52940;SDS011;62001;53.366;6.636;2023-08-07T11:51:09;11.68;;;3.10;;
52940;SDS011;62001;53.366;6.636;2023-08-07T11:53:36;10.93;;;3.00;;
52940;SDS011;62001;53.366;6.636;2023-08-07T11:56:04;13.60;;;2.92;;
52940;SDS011;62001;53.366;6.636;2023-08-07T11:58:42;14.32;;;3.42;;
52940;SDS011;62001;53.366;6.636;2023-08-07T12:01:17;11.55;;;3.25;;
52940;SDS011;62001;53.366;6.636;2023-08-07T12:03:54;12.00;;;3.20;;
52940;SDS011;62001;53.366;6.636;2023-08-07T12:06:22;11.95;;;3.15;;
52940;SDS011;62001;53.366;6.636;2023-08-07T12:08:50;11.68;;;3.08;;
52940;SDS011;62001;53.366;6.636;2023-08-07T12:13:46;12.43;;;3.00;;
52940;SDS011;62001;53.366;6.636;2023-08-07T12:16:13;12.48;;;2.90;;
52940;SDS011;62001;53.366;6.636;2023-08-07T12:18:50;11.35;;;3.13;;
52940;SDS011;62001;53.366;6.636;2023-08-07T12:21:20;11.40;;;3.13;;
52940;SDS011;62001;53.366;6.636;2023-08-07T12:23:49;12.35;;;3.05;;
52940;SDS011;62001;53.366;6.636;2023-08-07T12:26:16;11.50;;;2.80;;
52940;SDS011;62001;53.366;6.636;2023-08-07T12:28:42;10.95;;;3.10;;
52940;SDS011;62001;53.366;6.636;2023-08-07T12:31:09;14.95;;;3.40;;
52940;SDS011;62001;53.366;6.636;2023-08-07T12:33:35;11.88;;;3.25;;
52940;SDS011;62001;53.366;6.636;2023-08-07T12:36:01;11.73;;;2.88;;
52940;SDS011;62001;53.366;6.636;2023-08-07T12:38:28;11.65;;;3.10;;
52940;SDS011;62001;53.366;6.636;2023-08-07T12:40:54;9.15;;;2.72;;
52940;SDS011;62001;53.366;6.636;2023-08-07T12:43:20;12.90;;;3.00;;
52940;SDS011;62001;53.366;6.636;2023-08-07T12:45:46;8.68;;;2.65;;
52940;SDS011;62001;53.366;6.636;2023-08-07T12:48:12;11.77;;;2.63;;
52940;SDS011;62001;53.366;6.636;2023-08-07T12:50:39;10.52;;;2.83;;
52940;SDS011;62001;53.366;6.636;2023-08-07T12:53:05;9.45;;;2.80;;
52940;SDS011;62001;53.366;6.636;2023-08-07T12:55:34;7.78;;;3.13;;
52940;SDS011;62001;53.366;6.636;2023-08-07T12:58:00;12.15;;;3.25;;
52940;SDS011;62001;53.366;6.636;2023-08-07T13:00:25;14.50;;;3.30;;
52940;SDS011;62001;53.366;6.636;2023-08-07T13:02:51;20.75;;;3.83;;
52940;SDS011;62001;53.366;6.636;2023-08-07T13:05:19;15.32;;;4.10;;
52940;SDS011;62001;53.366;6.636;2023-08-07T13:07:46;11.93;;;2.83;;
52940;SDS011;62001;53.366;6.636;2023-08-07T13:10:13;10.68;;;3.40;;
52940;SDS011;62001;53.366;6.636;2023-08-07T13:12:40;11.18;;;3.35;;
52940;SDS011;62001;53.366;6.636;2023-08-07T13:15:08;15.27;;;3.45;;
52940;SDS011;62001;53.366;6.636;2023-08-07T13:17:35;18.08;;;4.35;;
52940;SDS011;62001;53.366;6.636;2023-08-07T13:20:02;12.73;;;3.95;;
52940;SDS011;62001;53.366;6.636;2023-08-07T13:22:38;16.73;;;4.22;;
52940;SDS011;62001;53.366;6.636;2023-08-07T13:25:05;13.48;;;4.10;;
52940;SDS011;62001;53.366;6.636;2023-08-07T13:27:32;14.95;;;3.75;;
52940;SDS011;62001;53.366;6.636;2023-08-07T13:30:00;12.35;;;3.47;;
52940;SDS011;62001;53.366;6.636;2023-08-07T13:32:26;15.40;;;3.85;;
52940;SDS011;62001;53.366;6.636;2023-08-07T13:34:52;9.77;;;3.22;;
52940;SDS011;62001;53.366;6.636;2023-08-07T13:37:19;12.88;;;3.58;;
52940;SDS011;62001;53.366;6.636;2023-08-07T13:39:45;13.27;;;4.00;;
52940;SDS011;62001;53.366;6.636;2023-08-07T13:42:13;15.90;;;4.32;;
52940;SDS011;62001;53.366;6.636;2023-08-07T13:44:39;14.30;;;4.00;;
52940;SDS011;62001;53.366;6.636;2023-08-07T13:47:05;11.63;;;3.47;;
52940;SDS011;62001;53.366;6.636;2023-08-07T13:49:32;9.98;;;3.63;;
52940;SDS011;62001;53.366;6.636;2023-08-07T13:51:58;10.18;;;3.20;;
52940;SDS011;62001;53.366;6.636;2023-08-07T13:54:23;14.98;;;3.58;;
52940;SDS011;62001;53.366;6.636;2023-08-07T13:56:49;17.42;;;4.28;;
52940;SDS011;62001;53.366;6.636;2023-08-07T13:59:15;14.25;;;3.60;;
52940;SDS011;62001;53.366;6.636;2023-08-07T14:01:41;16.25;;;3.35;;
52940;SDS011;62001;53.366;6.636;2023-08-07T14:04:07;14.40;;;3.53;;
52940;SDS011;62001;53.366;6.636;2023-08-07T14:06:33;12.40;;;3.45;;
52940;SDS011;62001;53.366;6.636;2023-08-07T14:08:59;13.60;;;3.30;;
52940;SDS011;62001;53.366;6.636;2023-08-07T14:11:25;10.40;;;3.30;;
52940;SDS011;62001;53.366;6.636;2023-08-07T14:13:56;10.27;;;3.33;;
52940;SDS011;62001;53.366;6.636;2023-08-07T14:16:22;14.52;;;3.38;;
52940;SDS011;62001;53.366;6.636;2023-08-07T14:18:48;11.80;;;3.15;;
52940;SDS011;62001;53.366;6.636;2023-08-07T14:21:14;12.35;;;3.28;;
52940;SDS011;62001;53.366;6.636;2023-08-07T14:23:41;11.63;;;3.50;;
52940;SDS011;62001;53.366;6.636;2023-08-07T14:26:07;7.82;;;2.95;;
52940;SDS011;62001;53.366;6.636;2023-08-07T14:28:33;14.55;;;3.08;;
52940;SDS011;62001;53.366;6.636;2023-08-07T14:30:59;11.73;;;3.47;;
52940;SDS011;62001;53.366;6.636;2023-08-07T14:33:26;7.50;;;2.97;;
52940;SDS011;62001;53.366;6.636;2023-08-07T14:35:53;12.18;;;2.85;;
52940;SDS011;62001;53.366;6.636;2023-08-07T14:38:19;13.88;;;3.60;;
52940;SDS011;62001;53.366;6.636;2023-08-07T14:40:44;10.20;;;3.28;;
52940;SDS011;62001;53.366;6.636;2023-08-07T14:43:10;10.75;;;3.25;;
52940;SDS011;62001;53.366;6.636;2023-08-07T14:45:36;12.98;;;3.17;;
52940;SDS011;62001;53.366;6.636;2023-08-07T14:48:02;11.77;;;3.10;;
52940;SDS011;62001;53.366;6.636;2023-08-07T14:50:28;9.85;;;2.72;;
52940;SDS011;62001;53.366;6.636;2023-08-07T14:52:54;13.32;;;2.97;;